sensor_id;sensor_type;location;lat;lon;timestamp;P1;durP1;ratioP1;P2;durP2;ratioP2
16063;SDS011;8136;53.172;8.256;2022-07-29T00:00:05;2.20;;;2.00;;
16063;SDS011;8136;53.172;8.256;2022-07-29T00:02:33;5.03;;;1.93;;
16063;SDS011;8136;53.172;8.256;2022-07-29T00:05:00;2.30;;;2.00;;
16063;SDS011;8136;53.172;8.256;2022-07-29T00:07:28;2.80;;;1.70;;
16063;SDS011;8136;53.172;8.256;2022-07-29T00:09:55;3.00;;;2.27;;
16063;SDS011;8136;53.172;8.256;2022-07-29T00:12:23;2.53;;;2.30;;
16063;SDS011;8136;53.172;8.256;2022-07-29T00:14:51;6.43;;;2.17;;
16063;SDS011;8136;53.172;8.256;2022-07-29T00:17:18;3.37;;;2.40;;
16063;SDS011;8136;53.172;8.256;2022-07-29T00:19:45;4.13;;;1.87;;
16063;SDS011;8136;53.172;8.256;2022-07-29T00:22:11;3.33;;;2.27;;
16063;SDS011;8136;53.172;8.256;2022-07-29T00:24:39;1.90;;;1.80;;
16063;SDS011;8136;53.172;8.256;2022-07-29T00:27:06;2.57;;;1.80;;
16063;SDS011;8136;53.172;8.256;2022-07-29T00:29:33;3.13;;;2.10;;
16063;SDS011;8136;53.172;8.256;2022-07-29T00:32:00;3.87;;;1.83;;
16063;SDS011;8136;53.172;8.256;2022-07-29T00:34:26;1.90;;;1.70;;
16063;SDS011;8136;53.172;8.256;2022-07-29T00:37:11;2.33;;;1.70;;
16063;SDS011;8136;53.172;8.256;2022-07-29T00:39:37;3.40;;;2.10;;
16063;SDS011;8136;53.172;8.256;2022-07-29T00:42:06;2.30;;;2.00;;
16063;SDS011;8136;53.172;8.256;2022-07-29T00:44:35;3.13;;;2.10;;
16063;SDS011;8136;53.172;8.256;2022-07-29T00:47:02;5.73;;;2.50;;
16063;SDS011;8136;53.172;8.256;2022-07-29T00:49:29;2.93;;;1.80;;
16063;SDS011;8136;53.172;8.256;2022-07-29T00:51:56;4.00;;;2.20;;
16063;SDS011;8136;53.172;8.256;2022-07-29T00:54:23;2.37;;;2.00;;
16063;SDS011;8136;53.172;8.256;2022-07-29T00:56:53;2.77;;;1.90;;
16063;SDS011;8136;53.172;8.256;2022-07-29T00:59:19;3.57;;;1.83;;
16063;SDS011;8136;53.172;8.256;2022-07-29T01:01:46;2.90;;;2.10;;
16063;SDS011;8136;53.172;8.256;2022-07-29T01:04:13;9.00;;;2.50;;
16063;SDS011;8136;53.172;8.256;2022-07-29T01:06:40;2.93;;;1.90;;
16063;SDS011;8136;53.172;8.256;2022-07-29T01:09:08;2.27;;;2.00;;
16063;SDS011;8136;53.172;8.256;2022-07-29T01:11:35;3.77;;;2.53;;
16063;SDS011;8136;53.172;8.256;2022-07-29T01:14:05;2.23;;;2.03;;
16063;SDS011;8136;53.172;8.256;2022-07-29T01:16:35;2.20;;;2.00;;
16063;SDS011;8136;53.172;8.256;2022-07-29T01:19:18;2.63;;;2.20;;
16063;SDS011;8136;53.172;8.256;2022-07-29T01:21:59;4.27;;;2.20;;
16063;SDS011;8136;53.172;8.256;2022-07-29T01:24:47;2.33;;;2.13;;
16063;SDS011;8136;53.172;8.256;2022-07-29T01:27:32;4.83;;;2.40;;
16063;SDS011;8136;53.172;8.256;2022-07-29T01:30:19;2.40;;;2.20;;
16063;SDS011;8136;53.172;8.256;2022-07-29T01:32:48;2.30;;;2.10;;
16063;SDS011;8136;53.172;8.256;2022-07-29T01:35:20;2.17;;;1.97;;
16063;SDS011;8136;53.172;8.256;2022-07-29T01:37:50;3.40;;;2.03;;
16063;SDS011;8136;53.172;8.256;2022-07-29T01:40:24;3.23;;;2.17;;
16063;SDS011;8136;53.172;8.256;2022-07-29T01:42:55;4.37;;;2.17;;
16063;SDS011;8136;53.172;8.256;2022-07-29T01:45:28;3.10;;;2.17;;
16063;SDS011;8136;53.172;8.256;2022-07-29T01:48:05;4.87;;;2.73;;
16063;SDS011;8136;53.172;8.256;2022-07-29T01:50:38;3.40;;;2.20;;
16063;SDS011;8136;53.172;8.256;2022-07-29T01:53:10;4.60;;;2.30;;
16063;SDS011;8136;53.172;8.256;2022-07-29T01:55:42;4.00;;;2.00;;
16063;SDS011;8136;53.172;8.256;2022-07-29T01:58:11;3.17;;;1.97;;
16063;SDS011;8136;53.172;8.256;2022-07-29T02:00:41;3.63;;;1.80;;
16063;SDS011;8136;53.172;8.256;2022-07-29T02:03:11;4.03;;;1.90;;
16063;SDS011;8136;53.172;8.256;2022-07-29T02:05:40;3.87;;;2.13;;
16063;SDS011;8136;53.172;8.256;2022-07-29T02:08:09;2.17;;;2.00;;
16063;SDS011;8136;53.172;8.256;2022-07-29T02:10:37;3.90;;;2.27;;
16063;SDS011;8136;53.172;8.256;2022-07-29T02:13:06;3.30;;;2.10;;
16063;SDS011;8136;53.172;8.256;2022-07-29T02:15:33;3.03;;;2.20;;
16063;SDS011;8136;53.172;8.256;2022-07-29T02:18:04;2.83;;;1.97;;
16063;SDS011;8136;53.172;8.256;2022-07-29T02:20:35;5.17;;;2.27;;
16063;SDS011;8136;53.172;8.256;2022-07-29T02:23:04;2.57;;;2.10;;
16063;SDS011;8136;53.172;8.256;2022-07-29T02:25:32;2.50;;;2.20;;
16063;SDS011;8136;53.172;8.256;2022-07-29T02:27:58;2.27;;;2.07;;
16063;SDS011;8136;53.172;8.256;2022-07-29T02:30:26;4.43;;;2.00;;
16063;SDS011;8136;53.172;8.256;2022-07-29T02:32:55;4.00;;;2.23;;
16063;SDS011;8136;53.172;8.256;2022-07-29T02:35:23;4.27;;;2.20;;
16063;SDS011;8136;53.172;8.256;2022-07-29T02:37:51;3.30;;;2.00;;
16063;SDS011;8136;53.172;8.256;2022-07-29T02:40:33;4.40;;;2.00;;
16063;SDS011;8136;53.172;8.256;2022-07-29T02:43:01;3.93;;;2.00;;
16063;SDS011;8136;53.172;8.256;2022-07-29T02:45:30;2.03;;;1.73;;
16063;SDS011;8136;53.172;8.256;2022-07-29T02:47:57;2.53;;;1.80;;
16063;SDS011;8136;53.172;8.256;2022-07-29T02:50:30;3.23;;;1.97;;
16063;SDS011;8136;53.172;8.256;2022-07-29T02:53:02;3.83;;;2.03;;
16063;SDS011;8136;53.172;8.256;2022-07-29T02:55:36;3.10;;;1.90;;
16063;SDS011;8136;53.172;8.256;2022-07-29T02:58:12;2.90;;;1.73;;
16063;SDS011;8136;53.172;8.256;2022-07-29T03:00:41;3.03;;;1.93;;
16063;SDS011;8136;53.172;8.256;2022-07-29T03:03:11;3.33;;;1.70;;
16063;SDS011;8136;53.172;8.256;2022-07-29T03:05:42;3.70;;;1.80;;
16063;SDS011;8136;53.172;8.256;2022-07-29T03:08:09;4.27;;;2.03;;
16063;SDS011;8136;53.172;8.256;2022-07-29T03:10:37;5.50;;;2.53;;
16063;SDS011;8136;53.172;8.256;2022-07-29T03:13:06;5.27;;;2.20;;
16063;SDS011;8136;53.172;8.256;2022-07-29T03:15:35;5.13;;;1.70;;
16063;SDS011;8136;53.172;8.256;2022-07-29T03:18:02;5.00;;;2.00;;
16063;SDS011;8136;53.172;8.256;2022-07-29T03:20:31;3.40;;;1.90;;
16063;SDS011;8136;53.172;8.256;2022-07-29T03:22:59;5.70;;;1.80;;
16063;SDS011;8136;53.172;8.256;2022-07-29T03:25:26;4.60;;;1.90;;
16063;SDS011;8136;53.172;8.256;2022-07-29T03:27:53;2.83;;;1.90;;
16063;SDS011;8136;53.172;8.256;2022-07-29T03:30:21;2.17;;;1.70;;
16063;SDS011;8136;53.172;8.256;2022-07-29T03:32:48;2.93;;;1.93;;
16063;SDS011;8136;53.172;8.256;2022-07-29T03:35:16;4.07;;;1.80;;
16063;SDS011;8136;53.172;8.256;2022-07-29T03:37:43;4.73;;;2.27;;
16063;SDS011;8136;53.172;8.256;2022-07-29T03:40:16;3.83;;;2.30;;
16063;SDS011;8136;53.172;8.256;2022-07-29T03:42:46;2.00;;;1.60;;
16063;SDS011;8136;53.172;8.256;2022-07-29T03:45:15;3.93;;;2.03;;
16063;SDS011;8136;53.172;8.256;2022-07-29T03:47:45;3.97;;;2.30;;
16063;SDS011;8136;53.172;8.256;2022-07-29T03:50:16;4.70;;;1.90;;
16063;SDS011;8136;53.172;8.256;2022-07-29T03:52:45;3.40;;;2.07;;
16063;SDS011;8136;53.172;8.256;2022-07-29T03:55:14;1.87;;;1.57;;
16063;SDS011;8136;53.172;8.256;2022-07-29T03:57:41;6.77;;;2.37;;
16063;SDS011;8136;53.172;8.256;2022-07-29T04:00:08;3.90;;;1.87;;
16063;SDS011;8136;53.172;8.256;2022-07-29T04:02:36;4.37;;;1.97;;
16063;SDS011;8136;53.172;8.256;2022-07-29T04:05:05;4.33;;;1.90;;
16063;SDS011;8136;53.172;8.256;2022-07-29T04:07:37;3.63;;;1.93;;
16063;SDS011;8136;53.172;8.256;2022-07-29T04:10:04;3.90;;;1.87;;
16063;SDS011;8136;53.172;8.256;2022-07-29T04:12:33;2.93;;;1.90;;
16063;SDS011;8136;53.172;8.256;2022-07-29T04:15:00;2.90;;;1.60;;
16063;SDS011;8136;53.172;8.256;2022-07-29T04:17:27;2.77;;;2.07;;
16063;SDS011;8136;53.172;8.256;2022-07-29T04:19:54;4.07;;;2.37;;
16063;SDS011;8136;53.172;8.256;2022-07-29T04:22:20;2.03;;;1.60;;
16063;SDS011;8136;53.172;8.256;2022-07-29T04:24:47;2.83;;;1.90;;
16063;SDS011;8136;53.172;8.256;2022-07-29T04:27:14;3.10;;;2.00;;
16063;SDS011;8136;53.172;8.256;2022-07-29T04:29:42;5.53;;;1.97;;
16063;SDS011;8136;53.172;8.256;2022-07-29T04:32:08;2.53;;;1.90;;
16063;SDS011;8136;53.172;8.256;2022-07-29T04:34:35;3.20;;;1.83;;
16063;SDS011;8136;53.172;8.256;2022-07-29T04:37:02;4.60;;;1.80;;
16063;SDS011;8136;53.172;8.256;2022-07-29T04:39:29;4.73;;;2.03;;
16063;SDS011;8136;53.172;8.256;2022-07-29T04:41:55;4.50;;;1.87;;
16063;SDS011;8136;53.172;8.256;2022-07-29T04:44:22;4.47;;;2.20;;
16063;SDS011;8136;53.172;8.256;2022-07-29T04:46:50;2.53;;;2.13;;
16063;SDS011;8136;53.172;8.256;2022-07-29T04:49:17;5.03;;;2.00;;
16063;SDS011;8136;53.172;8.256;2022-07-29T04:51:44;3.93;;;1.60;;
16063;SDS011;8136;53.172;8.256;2022-07-29T04:54:10;4.30;;;2.10;;
16063;SDS011;8136;53.172;8.256;2022-07-29T04:56:37;7.07;;;2.13;;
16063;SDS011;8136;53.172;8.256;2022-07-29T04:59:04;3.93;;;2.20;;
16063;SDS011;8136;53.172;8.256;2022-07-29T05:01:30;3.27;;;1.90;;
16063;SDS011;8136;53.172;8.256;2022-07-29T05:03:59;2.70;;;1.87;;
16063;SDS011;8136;53.172;8.256;2022-07-29T05:06:25;4.27;;;1.67;;
16063;SDS011;8136;53.172;8.256;2022-07-29T05:08:52;2.63;;;1.80;;
16063;SDS011;8136;53.172;8.256;2022-07-29T05:11:19;4.27;;;1.83;;
16063;SDS011;8136;53.172;8.256;2022-07-29T05:13:45;3.67;;;2.10;;
16063;SDS011;8136;53.172;8.256;2022-07-29T05:16:12;5.50;;;2.20;;
16063;SDS011;8136;53.172;8.256;2022-07-29T05:18:39;4.67;;;2.10;;
16063;SDS011;8136;53.172;8.256;2022-07-29T05:21:07;2.57;;;2.00;;
16063;SDS011;8136;53.172;8.256;2022-07-29T05:23:34;2.60;;;1.80;;
16063;SDS011;8136;53.172;8.256;2022-07-29T05:26:01;4.40;;;1.90;;
16063;SDS011;8136;53.172;8.256;2022-07-29T05:28:28;2.97;;;1.77;;
16063;SDS011;8136;53.172;8.256;2022-07-29T05:30:54;3.40;;;1.77;;
16063;SDS011;8136;53.172;8.256;2022-07-29T05:33:21;6.67;;;1.80;;
16063;SDS011;8136;53.172;8.256;2022-07-29T05:35:48;2.77;;;1.80;;
16063;SDS011;8136;53.172;8.256;2022-07-29T05:38:16;2.73;;;1.90;;
16063;SDS011;8136;53.172;8.256;2022-07-29T05:40:43;2.27;;;1.80;;
16063;SDS011;8136;53.172;8.256;2022-07-29T05:43:09;4.17;;;2.10;;
16063;SDS011;8136;53.172;8.256;2022-07-29T05:45:36;2.10;;;1.80;;
16063;SDS011;8136;53.172;8.256;2022-07-29T05:48:04;3.67;;;2.33;;
16063;SDS011;8136;53.172;8.256;2022-07-29T05:50:31;3.70;;;1.97;;
16063;SDS011;8136;53.172;8.256;2022-07-29T05:52:58;2.80;;;1.90;;
16063;SDS011;8136;53.172;8.256;2022-07-29T05:55:26;3.83;;;2.13;;
16063;SDS011;8136;53.172;8.256;2022-07-29T05:57:53;6.83;;;2.20;;
16063;SDS011;8136;53.172;8.256;2022-07-29T06:00:19;3.73;;;1.90;;
16063;SDS011;8136;53.172;8.256;2022-07-29T06:02:47;4.47;;;2.10;;
16063;SDS011;8136;53.172;8.256;2022-07-29T06:05:14;3.63;;;1.97;;
16063;SDS011;8136;53.172;8.256;2022-07-29T06:07:41;2.10;;;1.90;;
16063;SDS011;8136;53.172;8.256;2022-07-29T06:10:08;3.10;;;1.97;;
16063;SDS011;8136;53.172;8.256;2022-07-29T06:12:36;4.10;;;2.10;;
16063;SDS011;8136;53.172;8.256;2022-07-29T06:15:04;2.73;;;2.00;;
16063;SDS011;8136;53.172;8.256;2022-07-29T06:17:31;2.83;;;2.00;;
16063;SDS011;8136;53.172;8.256;2022-07-29T06:19:58;3.07;;;1.97;;
16063;SDS011;8136;53.172;8.256;2022-07-29T06:22:24;2.90;;;2.07;;
16063;SDS011;8136;53.172;8.256;2022-07-29T06:24:51;3.13;;;1.63;;
16063;SDS011;8136;53.172;8.256;2022-07-29T06:27:18;2.97;;;2.00;;
16063;SDS011;8136;53.172;8.256;2022-07-29T06:29:46;4.13;;;2.27;;
16063;SDS011;8136;53.172;8.256;2022-07-29T06:32:13;2.47;;;2.00;;
16063;SDS011;8136;53.172;8.256;2022-07-29T06:34:40;4.57;;;2.40;;
16063;SDS011;8136;53.172;8.256;2022-07-29T06:37:06;3.17;;;1.90;;
16063;SDS011;8136;53.172;8.256;2022-07-29T06:39:34;4.30;;;2.20;;
16063;SDS011;8136;53.172;8.256;2022-07-29T06:42:01;3.73;;;2.00;;
16063;SDS011;8136;53.172;8.256;2022-07-29T06:44:29;5.37;;;2.30;;
16063;SDS011;8136;53.172;8.256;2022-07-29T06:46:57;6.07;;;2.07;;
16063;SDS011;8136;53.172;8.256;2022-07-29T06:49:24;4.53;;;2.13;;
16063;SDS011;8136;53.172;8.256;2022-07-29T06:51:52;3.83;;;2.23;;
16063;SDS011;8136;53.172;8.256;2022-07-29T06:54:19;4.30;;;2.40;;
16063;SDS011;8136;53.172;8.256;2022-07-29T06:56:46;3.83;;;2.40;;
16063;SDS011;8136;53.172;8.256;2022-07-29T06:59:13;4.17;;;2.40;;
16063;SDS011;8136;53.172;8.256;2022-07-29T07:01:41;4.80;;;2.23;;
16063;SDS011;8136;53.172;8.256;2022-07-29T07:04:10;2.87;;;1.80;;
16063;SDS011;8136;53.172;8.256;2022-07-29T07:06:38;7.00;;;2.20;;
16063;SDS011;8136;53.172;8.256;2022-07-29T07:09:05;3.70;;;2.30;;
16063;SDS011;8136;53.172;8.256;2022-07-29T07:11:32;3.23;;;1.90;;
16063;SDS011;8136;53.172;8.256;2022-07-29T07:13:59;5.87;;;2.10;;
16063;SDS011;8136;53.172;8.256;2022-07-29T07:16:25;5.97;;;2.27;;
16063;SDS011;8136;53.172;8.256;2022-07-29T07:18:52;1.97;;;1.77;;
16063;SDS011;8136;53.172;8.256;2022-07-29T07:21:20;4.53;;;2.07;;
16063;SDS011;8136;53.172;8.256;2022-07-29T07:23:47;4.17;;;2.23;;
16063;SDS011;8136;53.172;8.256;2022-07-29T07:26:14;4.27;;;2.00;;
16063;SDS011;8136;53.172;8.256;2022-07-29T07:28:40;4.10;;;2.23;;
16063;SDS011;8136;53.172;8.256;2022-07-29T07:31:07;2.77;;;1.70;;
16063;SDS011;8136;53.172;8.256;2022-07-29T07:33:34;2.93;;;2.00;;
16063;SDS011;8136;53.172;8.256;2022-07-29T07:36:01;3.83;;;2.20;;
16063;SDS011;8136;53.172;8.256;2022-07-29T07:38:29;3.67;;;2.20;;
16063;SDS011;8136;53.172;8.256;2022-07-29T07:40:56;14.03;;;2.37;;
16063;SDS011;8136;53.172;8.256;2022-07-29T07:43:22;6.00;;;1.97;;
16063;SDS011;8136;53.172;8.256;2022-07-29T07:45:49;2.83;;;1.80;;
16063;SDS011;8136;53.172;8.256;2022-07-29T07:48:16;4.43;;;2.30;;
16063;SDS011;8136;53.172;8.256;2022-07-29T07:50:43;4.60;;;1.80;;
16063;SDS011;8136;53.172;8.256;2022-07-29T07:53:10;5.57;;;2.50;;
16063;SDS011;8136;53.172;8.256;2022-07-29T07:55:40;4.83;;;2.07;;
16063;SDS011;8136;53.172;8.256;2022-07-29T07:58:07;4.10;;;1.80;;
16063;SDS011;8136;53.172;8.256;2022-07-29T08:00:34;3.77;;;2.10;;
16063;SDS011;8136;53.172;8.256;2022-07-29T08:03:02;3.73;;;1.97;;
16063;SDS011;8136;53.172;8.256;2022-07-29T08:05:29;2.73;;;1.90;;
16063;SDS011;8136;53.172;8.256;2022-07-29T08:07:56;4.03;;;1.83;;
16063;SDS011;8136;53.172;8.256;2022-07-29T08:10:22;2.93;;;2.13;;
16063;SDS011;8136;53.172;8.256;2022-07-29T08:13:08;4.10;;;1.63;;
16063;SDS011;8136;53.172;8.256;2022-07-29T08:15:38;5.33;;;2.00;;
16063;SDS011;8136;53.172;8.256;2022-07-29T08:18:06;4.53;;;2.00;;
16063;SDS011;8136;53.172;8.256;2022-07-29T08:20:33;6.73;;;2.00;;
16063;SDS011;8136;53.172;8.256;2022-07-29T08:23:00;6.60;;;2.20;;
16063;SDS011;8136;53.172;8.256;2022-07-29T08:25:27;2.87;;;1.80;;
16063;SDS011;8136;53.172;8.256;2022-07-29T08:27:54;6.27;;;2.30;;
16063;SDS011;8136;53.172;8.256;2022-07-29T08:30:22;3.90;;;2.10;;
16063;SDS011;8136;53.172;8.256;2022-07-29T08:32:49;4.10;;;1.87;;
16063;SDS011;8136;53.172;8.256;2022-07-29T08:35:18;2.33;;;1.80;;
16063;SDS011;8136;53.172;8.256;2022-07-29T08:37:44;2.60;;;1.77;;
16063;SDS011;8136;53.172;8.256;2022-07-29T08:40:11;5.53;;;1.90;;
16063;SDS011;8136;53.172;8.256;2022-07-29T08:42:39;3.37;;;1.80;;
16063;SDS011;8136;53.172;8.256;2022-07-29T08:45:06;4.87;;;1.97;;
16063;SDS011;8136;53.172;8.256;2022-07-29T08:47:35;3.53;;;1.87;;
16063;SDS011;8136;53.172;8.256;2022-07-29T08:50:05;3.57;;;2.00;;
16063;SDS011;8136;53.172;8.256;2022-07-29T08:52:33;5.40;;;2.07;;
16063;SDS011;8136;53.172;8.256;2022-07-29T08:55:02;4.00;;;2.10;;
16063;SDS011;8136;53.172;8.256;2022-07-29T08:57:30;4.93;;;2.03;;
16063;SDS011;8136;53.172;8.256;2022-07-29T08:59:58;3.70;;;1.90;;
16063;SDS011;8136;53.172;8.256;2022-07-29T09:02:26;5.27;;;2.07;;
16063;SDS011;8136;53.172;8.256;2022-07-29T09:05:01;3.93;;;2.03;;
16063;SDS011;8136;53.172;8.256;2022-07-29T09:07:28;5.30;;;1.70;;
16063;SDS011;8136;53.172;8.256;2022-07-29T09:09:55;6.40;;;2.30;;
16063;SDS011;8136;53.172;8.256;2022-07-29T09:12:22;5.70;;;2.33;;
16063;SDS011;8136;53.172;8.256;2022-07-29T09:14:50;4.03;;;1.93;;
16063;SDS011;8136;53.172;8.256;2022-07-29T09:17:17;4.53;;;2.30;;
16063;SDS011;8136;53.172;8.256;2022-07-29T09:19:44;6.17;;;1.70;;
16063;SDS011;8136;53.172;8.256;2022-07-29T09:22:12;3.47;;;1.70;;
16063;SDS011;8136;53.172;8.256;2022-07-29T09:24:55;3.83;;;1.73;;
16063;SDS011;8136;53.172;8.256;2022-07-29T09:27:23;3.43;;;1.90;;
16063;SDS011;8136;53.172;8.256;2022-07-29T09:29:58;6.23;;;1.70;;
16063;SDS011;8136;53.172;8.256;2022-07-29T09:32:25;4.20;;;1.80;;
16063;SDS011;8136;53.172;8.256;2022-07-29T09:37:42;2.93;;;1.53;;
16063;SDS011;8136;53.172;8.256;2022-07-29T09:40:13;4.37;;;1.60;;
16063;SDS011;8136;53.172;8.256;2022-07-29T09:42:41;4.00;;;1.50;;
16063;SDS011;8136;53.172;8.256;2022-07-29T09:45:09;3.90;;;1.70;;
16063;SDS011;8136;53.172;8.256;2022-07-29T09:47:43;5.37;;;2.03;;
16063;SDS011;8136;53.172;8.256;2022-07-29T09:50:12;3.53;;;1.70;;
16063;SDS011;8136;53.172;8.256;2022-07-29T09:52:47;5.80;;;1.80;;
16063;SDS011;8136;53.172;8.256;2022-07-29T09:55:15;3.97;;;1.93;;
16063;SDS011;8136;53.172;8.256;2022-07-29T09:57:43;3.50;;;1.97;;
16063;SDS011;8136;53.172;8.256;2022-07-29T10:00:11;3.83;;;1.80;;
16063;SDS011;8136;53.172;8.256;2022-07-29T10:02:40;6.07;;;1.90;;
16063;SDS011;8136;53.172;8.256;2022-07-29T10:07:44;6.43;;;2.17;;
16063;SDS011;8136;53.172;8.256;2022-07-29T10:10:18;4.23;;;2.07;;
16063;SDS011;8136;53.172;8.256;2022-07-29T10:12:50;3.87;;;1.87;;
16063;SDS011;8136;53.172;8.256;2022-07-29T10:15:19;2.10;;;1.40;;
16063;SDS011;8136;53.172;8.256;2022-07-29T10:17:48;2.23;;;1.43;;
16063;SDS011;8136;53.172;8.256;2022-07-29T10:20:15;4.87;;;1.73;;
16063;SDS011;8136;53.172;8.256;2022-07-29T10:22:43;3.47;;;1.40;;
16063;SDS011;8136;53.172;8.256;2022-07-29T10:25:13;2.63;;;1.30;;
16063;SDS011;8136;53.172;8.256;2022-07-29T10:27:41;4.40;;;1.50;;
16063;SDS011;8136;53.172;8.256;2022-07-29T10:30:09;3.43;;;1.70;;
16063;SDS011;8136;53.172;8.256;2022-07-29T10:32:54;2.83;;;1.30;;
16063;SDS011;8136;53.172;8.256;2022-07-29T10:35:44;3.17;;;1.53;;
16063;SDS011;8136;53.172;8.256;2022-07-29T10:38:24;2.27;;;1.37;;
16063;SDS011;8136;53.172;8.256;2022-07-29T10:41:04;5.10;;;1.37;;
16063;SDS011;8136;53.172;8.256;2022-07-29T10:43:53;3.30;;;1.40;;
16063;SDS011;8136;53.172;8.256;2022-07-29T10:46:24;3.47;;;1.20;;
16063;SDS011;8136;53.172;8.256;2022-07-29T10:49:04;4.60;;;1.40;;
16063;SDS011;8136;53.172;8.256;2022-07-29T10:51:54;2.97;;;1.13;;
16063;SDS011;8136;53.172;8.256;2022-07-29T10:54:37;2.87;;;1.40;;
16063;SDS011;8136;53.172;8.256;2022-07-29T10:57:27;4.23;;;1.50;;
16063;SDS011;8136;53.172;8.256;2022-07-29T11:02:54;5.30;;;1.53;;
16063;SDS011;8136;53.172;8.256;2022-07-29T11:05:23;4.70;;;1.40;;
16063;SDS011;8136;53.172;8.256;2022-07-29T11:10:46;3.13;;;1.30;;
16063;SDS011;8136;53.172;8.256;2022-07-29T11:16:20;3.83;;;1.30;;
16063;SDS011;8136;53.172;8.256;2022-07-29T11:21:46;1.93;;;1.20;;
16063;SDS011;8136;53.172;8.256;2022-07-29T11:24:15;2.37;;;1.40;;
16063;SDS011;8136;53.172;8.256;2022-07-29T11:26:43;2.53;;;1.23;;
16063;SDS011;8136;53.172;8.256;2022-07-29T11:29:18;2.47;;;1.00;;
16063;SDS011;8136;53.172;8.256;2022-07-29T11:31:48;5.23;;;1.33;;
16063;SDS011;8136;53.172;8.256;2022-07-29T11:34:20;2.77;;;1.20;;
16063;SDS011;8136;53.172;8.256;2022-07-29T11:39:44;4.47;;;1.57;;
16063;SDS011;8136;53.172;8.256;2022-07-29T11:42:36;2.73;;;1.40;;
16063;SDS011;8136;53.172;8.256;2022-07-29T11:45:06;3.87;;;1.20;;
16063;SDS011;8136;53.172;8.256;2022-07-29T11:47:35;3.07;;;1.10;;
16063;SDS011;8136;53.172;8.256;2022-07-29T11:50:04;2.70;;;1.30;;
16063;SDS011;8136;53.172;8.256;2022-07-29T11:52:32;2.17;;;1.20;;
16063;SDS011;8136;53.172;8.256;2022-07-29T11:55:02;1.93;;;1.10;;
16063;SDS011;8136;53.172;8.256;2022-07-29T11:57:31;2.37;;;1.40;;
16063;SDS011;8136;53.172;8.256;2022-07-29T11:59:59;1.80;;;1.10;;
16063;SDS011;8136;53.172;8.256;2022-07-29T12:02:39;5.83;;;1.37;;
16063;SDS011;8136;53.172;8.256;2022-07-29T12:05:07;5.87;;;1.23;;
16063;SDS011;8136;53.172;8.256;2022-07-29T12:07:35;6.07;;;1.50;;
16063;SDS011;8136;53.172;8.256;2022-07-29T12:10:03;3.07;;;1.50;;
16063;SDS011;8136;53.172;8.256;2022-07-29T12:12:31;3.47;;;1.40;;
16063;SDS011;8136;53.172;8.256;2022-07-29T12:14:57;4.33;;;1.40;;
16063;SDS011;8136;53.172;8.256;2022-07-29T12:17:36;4.30;;;1.50;;
16063;SDS011;8136;53.172;8.256;2022-07-29T12:20:05;3.00;;;1.30;;
16063;SDS011;8136;53.172;8.256;2022-07-29T12:22:33;3.93;;;1.37;;
16063;SDS011;8136;53.172;8.256;2022-07-29T12:25:02;4.77;;;2.10;;
16063;SDS011;8136;53.172;8.256;2022-07-29T12:27:30;5.20;;;1.47;;
16063;SDS011;8136;53.172;8.256;2022-07-29T12:29:58;3.60;;;1.53;;
16063;SDS011;8136;53.172;8.256;2022-07-29T12:32:30;3.83;;;1.37;;
16063;SDS011;8136;53.172;8.256;2022-07-29T12:34:59;3.37;;;1.60;;
16063;SDS011;8136;53.172;8.256;2022-07-29T12:37:29;6.27;;;1.60;;
16063;SDS011;8136;53.172;8.256;2022-07-29T12:39:57;2.40;;;1.20;;
16063;SDS011;8136;53.172;8.256;2022-07-29T12:42:23;1.87;;;1.33;;
16063;SDS011;8136;53.172;8.256;2022-07-29T12:44:51;3.33;;;1.67;;
16063;SDS011;8136;53.172;8.256;2022-07-29T12:47:18;3.00;;;1.37;;
16063;SDS011;8136;53.172;8.256;2022-07-29T12:49:45;4.13;;;1.47;;
16063;SDS011;8136;53.172;8.256;2022-07-29T12:55:05;2.43;;;1.23;;
16063;SDS011;8136;53.172;8.256;2022-07-29T12:57:43;2.70;;;1.57;;
16063;SDS011;8136;53.172;8.256;2022-07-29T13:00:12;4.93;;;1.40;;
16063;SDS011;8136;53.172;8.256;2022-07-29T13:02:40;3.97;;;1.53;;
16063;SDS011;8136;53.172;8.256;2022-07-29T13:05:09;3.37;;;1.53;;
16063;SDS011;8136;53.172;8.256;2022-07-29T13:07:38;4.07;;;1.70;;
16063;SDS011;8136;53.172;8.256;2022-07-29T13:10:09;4.40;;;1.60;;
16063;SDS011;8136;53.172;8.256;2022-07-29T13:12:37;4.60;;;1.47;;
16063;SDS011;8136;53.172;8.256;2022-07-29T13:15:12;3.53;;;1.77;;
16063;SDS011;8136;53.172;8.256;2022-07-29T13:17:40;4.47;;;1.30;;
16063;SDS011;8136;53.172;8.256;2022-07-29T13:20:09;3.93;;;1.43;;
16063;SDS011;8136;53.172;8.256;2022-07-29T13:22:40;21.23;;;2.90;;
16063;SDS011;8136;53.172;8.256;2022-07-29T13:25:08;8.20;;;1.50;;
16063;SDS011;8136;53.172;8.256;2022-07-29T13:27:36;3.30;;;0.90;;
16063;SDS011;8136;53.172;8.256;2022-07-29T13:30:05;4.33;;;1.57;;
16063;SDS011;8136;53.172;8.256;2022-07-29T13:32:34;2.60;;;1.07;;
16063;SDS011;8136;53.172;8.256;2022-07-29T13:35:04;4.43;;;1.10;;
16063;SDS011;8136;53.172;8.256;2022-07-29T13:37:32;4.67;;;1.30;;
16063;SDS011;8136;53.172;8.256;2022-07-29T13:40:04;4.57;;;1.20;;
16063;SDS011;8136;53.172;8.256;2022-07-29T13:42:32;1.90;;;1.20;;
16063;SDS011;8136;53.172;8.256;2022-07-29T13:44:59;4.73;;;1.37;;
16063;SDS011;8136;53.172;8.256;2022-07-29T13:47:26;3.80;;;1.33;;
16063;SDS011;8136;53.172;8.256;2022-07-29T13:49:53;4.07;;;1.10;;
16063;SDS011;8136;53.172;8.256;2022-07-29T13:52:20;2.37;;;1.23;;
16063;SDS011;8136;53.172;8.256;2022-07-29T13:54:47;3.60;;;1.47;;
16063;SDS011;8136;53.172;8.256;2022-07-29T13:57:16;4.53;;;1.20;;
16063;SDS011;8136;53.172;8.256;2022-07-29T13:59:43;4.47;;;1.30;;
16063;SDS011;8136;53.172;8.256;2022-07-29T14:02:10;3.63;;;1.03;;
16063;SDS011;8136;53.172;8.256;2022-07-29T14:04:38;4.97;;;1.87;;
16063;SDS011;8136;53.172;8.256;2022-07-29T14:07:05;1.97;;;1.10;;
16063;SDS011;8136;53.172;8.256;2022-07-29T14:09:32;2.33;;;1.27;;
16063;SDS011;8136;53.172;8.256;2022-07-29T14:11:59;4.57;;;1.50;;
16063;SDS011;8136;53.172;8.256;2022-07-29T14:14:28;4.70;;;1.33;;
16063;SDS011;8136;53.172;8.256;2022-07-29T14:16:56;3.20;;;1.33;;
16063;SDS011;8136;53.172;8.256;2022-07-29T14:19:23;3.83;;;1.40;;
16063;SDS011;8136;53.172;8.256;2022-07-29T14:21:50;3.57;;;1.40;;
16063;SDS011;8136;53.172;8.256;2022-07-29T14:24:17;2.60;;;1.40;;
16063;SDS011;8136;53.172;8.256;2022-07-29T14:26:43;5.17;;;1.90;;
16063;SDS011;8136;53.172;8.256;2022-07-29T14:29:10;2.37;;;1.33;;
16063;SDS011;8136;53.172;8.256;2022-07-29T14:31:38;2.53;;;1.20;;
16063;SDS011;8136;53.172;8.256;2022-07-29T14:34:05;2.60;;;1.30;;
16063;SDS011;8136;53.172;8.256;2022-07-29T14:36:32;2.03;;;1.33;;
16063;SDS011;8136;53.172;8.256;2022-07-29T14:38:59;7.80;;;1.93;;
16063;SDS011;8136;53.172;8.256;2022-07-29T14:41:26;3.37;;;1.93;;
16063;SDS011;8136;53.172;8.256;2022-07-29T14:43:54;5.17;;;1.63;;
16063;SDS011;8136;53.172;8.256;2022-07-29T14:46:21;4.27;;;1.70;;
16063;SDS011;8136;53.172;8.256;2022-07-29T14:48:49;4.27;;;1.47;;
16063;SDS011;8136;53.172;8.256;2022-07-29T14:51:16;8.10;;;2.23;;
16063;SDS011;8136;53.172;8.256;2022-07-29T14:53:43;2.80;;;1.50;;
16063;SDS011;8136;53.172;8.256;2022-07-29T14:56:10;3.73;;;1.73;;
16063;SDS011;8136;53.172;8.256;2022-07-29T14:58:36;4.37;;;1.83;;
16063;SDS011;8136;53.172;8.256;2022-07-29T15:01:03;4.67;;;1.90;;
16063;SDS011;8136;53.172;8.256;2022-07-29T15:03:30;4.37;;;1.80;;
16063;SDS011;8136;53.172;8.256;2022-07-29T15:05:59;2.93;;;1.50;;
16063;SDS011;8136;53.172;8.256;2022-07-29T15:08:26;4.60;;;1.70;;
16063;SDS011;8136;53.172;8.256;2022-07-29T15:10:54;6.57;;;2.10;;
16063;SDS011;8136;53.172;8.256;2022-07-29T15:13:22;5.50;;;1.53;;
16063;SDS011;8136;53.172;8.256;2022-07-29T15:15:49;6.43;;;1.70;;
16063;SDS011;8136;53.172;8.256;2022-07-29T15:18:16;4.03;;;2.00;;
16063;SDS011;8136;53.172;8.256;2022-07-29T15:20:42;6.63;;;2.00;;
16063;SDS011;8136;53.172;8.256;2022-07-29T15:23:12;18.97;;;2.80;;
16063;SDS011;8136;53.172;8.256;2022-07-29T15:25:39;6.80;;;2.27;;
16063;SDS011;8136;53.172;8.256;2022-07-29T15:28:06;4.90;;;1.80;;
16063;SDS011;8136;53.172;8.256;2022-07-29T15:30:33;5.10;;;2.20;;
16063;SDS011;8136;53.172;8.256;2022-07-29T15:33:04;3.23;;;1.87;;